Weather at Hôtel Royal Heliport

Public forecast

Using degrees Celsius for public forecast. Weather courtesy of forecast.io.

Closest aviation weather report (METAR) to Hôtel Royal Heliport

Closest report is Geneva Cointrin International Airport, 22.3 nm (41.3 km) WSW. Retrieved 2020/09/26 01:20 UTC (0 seconds ago):

LSGG 260120Z AUTO 27007KT 9999 RA FEW034 BKN050 08/05 Q1010 NOSIG

Closest aviation forecast (TAF) to Hôtel Royal Heliport

Closest forecast is Geneva Cointrin International Airport, 22.3 nm (41.3 km) WSW. Retrieved 2020-09-26 00:33 UTC (42 minutes ago):

TAF TAF LSGG 252325Z 2600/2706 24007KT 9999 FEW030 BKN045 TX11/2614Z TN06/2605Z TN06/2705Z PROB40 TEMPO 2600/2706 SHRA FEW040TCU PROB30 TEMPO 2613/2617 33010KT TSRA FEW040CB